Terminal Aerodrome Forecast
Issued by NWS Bismarck, ND

Home | Current Version | Previous Version | Text Only | Print | Product List | Glossary Off
Versions: 1 2 3 4 5 6 7 8 9 10 11 12 13 14 15 16 17 18 19 20 21 22 23 24 25 26 27

000
FTUS43 KBIS 220522
TAFBIS
TAF
KBIS 220522Z 2206/2306 16005KT P6SM VCTS BKN110CB
     FM221200 08004KT P6SM SCT011
      TEMPO 2212/2216 BKN011
     FM221700 10008KT P6SM SCT025 BKN150
     FM222000 11012KT P6SM SCT060
     FM222200 11013G19KT P6SM -SHRA VCTS BKN040CB OVC100=

USA.gov is the U.S. government's official web portal to all federal, state and local government web resources and services.